sensor_id;sensor_type;location;lat;lon;timestamp;pressure;altitude;pressure_sealevel;temperature;humidity
73518;BME280;61766;60.318;25.044;2023-06-10T00:01:29;102612.13;;;10.54;34.21
73518;BME280;61766;60.318;25.044;2023-06-10T00:03:54;102610.72;;;10.39;34.23
73518;BME280;61766;60.318;25.044;2023-06-10T00:06:19;102615.38;;;9.94;34.56
73518;BME280;61766;60.318;25.044;2023-06-10T00:08:44;102616.43;;;10.09;34.51
73518;BME280;61766;60.318;25.044;2023-06-10T00:11:09;102614.14;;;10.00;34.40
73518;BME280;61766;60.318;25.044;2023-06-10T00:13:34;102617.32;;;9.82;34.80
73518;BME280;61766;60.318;25.044;2023-06-10T00:15:59;102616.12;;;9.73;34.83
73518;BME280;61766;60.318;25.044;2023-06-10T00:18:25;102618.65;;;10.01;35.20
73518;BME280;61766;60.318;25.044;2023-06-10T00:20:50;102619.79;;;9.75;34.86
73518;BME280;61766;60.318;25.044;2023-06-10T00:23:15;102622.10;;;9.74;34.83
73518;BME280;61766;60.318;25.044;2023-06-10T00:25:40;102625.98;;;9.76;34.78
73518;BME280;61766;60.318;25.044;2023-06-10T00:28:05;102628.97;;;9.71;34.60
73518;BME280;61766;60.318;25.044;2023-06-10T00:30:30;102633.05;;;9.56;34.68
73518;BME280;61766;60.318;25.044;2023-06-10T00:32:56;102635.83;;;9.51;34.81
73518;BME280;61766;60.318;25.044;2023-06-10T00:35:21;102638.66;;;9.42;35.09
73518;BME280;61766;60.318;25.044;2023-06-10T00:37:46;102639.20;;;9.51;35.06
73518;BME280;61766;60.318;25.044;2023-06-10T00:40:12;102645.38;;;9.52;35.00
73518;BME280;61766;60.318;25.044;2023-06-10T00:42:36;102646.04;;;9.21;35.53
73518;BME280;61766;60.318;25.044;2023-06-10T00:45:02;102644.44;;;9.27;35.97
73518;BME280;61766;60.318;25.044;2023-06-10T00:47:27;102649.36;;;9.42;35.91
73518;BME280;61766;60.318;25.044;2023-06-10T00:49:52;102650.89;;;9.23;35.80
73518;BME280;61766;60.318;25.044;2023-06-10T00:52:18;102654.77;;;9.14;35.89
73518;BME280;61766;60.318;25.044;2023-06-10T00:54:43;102656.25;;;9.09;35.60
73518;BME280;61766;60.318;25.044;2023-06-10T00:57:08;102658.73;;;9.21;35.30
73518;BME280;61766;60.318;25.044;2023-06-10T00:59:33;102658.27;;;9.74;35.24
73518;BME280;61766;60.318;25.044;2023-06-10T01:01:59;102659.68;;;9.26;34.84
73518;BME280;61766;60.318;25.044;2023-06-10T01:04:23;102660.10;;;9.51;34.84
73518;BME280;61766;60.318;25.044;2023-06-10T01:06:54;102659.34;;;9.52;34.99
73518;BME280;61766;60.318;25.044;2023-06-10T01:09:21;102663.02;;;9.49;34.88
73518;BME280;61766;60.318;25.044;2023-06-10T01:11:43;102662.95;;;9.71;34.85
73518;BME280;61766;60.318;25.044;2023-06-10T01:14:04;102662.82;;;9.52;34.80
73518;BME280;61766;60.318;25.044;2023-06-10T01:16:29;102664.84;;;9.30;34.67
73518;BME280;61766;60.318;25.044;2023-06-10T01:18:55;102665.30;;;9.79;34.89
73518;BME280;61766;60.318;25.044;2023-06-10T01:21:21;102669.28;;;9.25;34.85
73518;BME280;61766;60.318;25.044;2023-06-10T01:23:45;102667.16;;;9.70;34.44
73518;BME280;61766;60.318;25.044;2023-06-10T01:26:11;102669.83;;;9.36;34.95
73518;BME280;61766;60.318;25.044;2023-06-10T01:28:41;102670.89;;;9.10;34.87
73518;BME280;61766;60.318;25.044;2023-06-10T01:31:07;102670.00;;;9.58;34.77
73518;BME280;61766;60.318;25.044;2023-06-10T01:33:29;102673.15;;;9.33;34.68
73518;BME280;61766;60.318;25.044;2023-06-10T01:35:51;102675.41;;;9.32;34.96
73518;BME280;61766;60.318;25.044;2023-06-10T01:38:18;102673.27;;;9.39;34.51
73518;BME280;61766;60.318;25.044;2023-06-10T01:40:42;102676.83;;;9.15;34.43
73518;BME280;61766;60.318;25.044;2023-06-10T01:43:06;102680.10;;;9.44;34.54
73518;BME280;61766;60.318;25.044;2023-06-10T01:45:35;102681.99;;;9.46;34.50
73518;BME280;61766;60.318;25.044;2023-06-10T01:47:57;102682.26;;;9.13;34.69
73518;BME280;61766;60.318;25.044;2023-06-10T01:50:22;102685.93;;;9.06;34.74
73518;BME280;61766;60.318;25.044;2023-06-10T01:52:47;102686.78;;;9.51;34.73
73518;BME280;61766;60.318;25.044;2023-06-10T01:55:12;102687.46;;;9.28;34.72
73518;BME280;61766;60.318;25.044;2023-06-10T01:57:38;102689.55;;;9.31;34.52
73518;BME280;61766;60.318;25.044;2023-06-10T02:00:03;102688.49;;;9.00;34.71
73518;BME280;61766;60.318;25.044;2023-06-10T02:02:28;102689.19;;;9.55;34.67
73518;BME280;61766;60.318;25.044;2023-06-10T02:04:54;102688.89;;;9.12;34.97
73518;BME280;61766;60.318;25.044;2023-06-10T02:07:19;102694.17;;;9.43;34.85
73518;BME280;61766;60.318;25.044;2023-06-10T02:09:44;102695.90;;;9.43;34.86
73518;BME280;61766;60.318;25.044;2023-06-10T02:12:10;102696.39;;;9.15;35.00
73518;BME280;61766;60.318;25.044;2023-06-10T02:14:34;102698.85;;;9.62;35.04
73518;BME280;61766;60.318;25.044;2023-06-10T02:17:00;102700.61;;;9.22;34.99
73518;BME280;61766;60.318;25.044;2023-06-10T02:19:25;102702.17;;;9.18;35.06
73518;BME280;61766;60.318;25.044;2023-06-10T02:21:50;102702.78;;;9.51;35.09
73518;BME280;61766;60.318;25.044;2023-06-10T02:24:15;102704.70;;;9.34;34.98
73518;BME280;61766;60.318;25.044;2023-06-10T02:26:40;102705.75;;;9.36;34.92
73518;BME280;61766;60.318;25.044;2023-06-10T02:29:05;102706.44;;;9.34;35.19
73518;BME280;61766;60.318;25.044;2023-06-10T02:31:31;102709.66;;;9.62;35.15
73518;BME280;61766;60.318;25.044;2023-06-10T02:33:56;102712.88;;;9.41;35.38
73518;BME280;61766;60.318;25.044;2023-06-10T02:36:21;102716.33;;;9.52;35.15
73518;BME280;61766;60.318;25.044;2023-06-10T02:38:46;102714.78;;;9.53;35.36
73518;BME280;61766;60.318;25.044;2023-06-10T02:41:11;102718.05;;;9.65;35.21
73518;BME280;61766;60.318;25.044;2023-06-10T02:43:36;102719.81;;;9.72;35.27
73518;BME280;61766;60.318;25.044;2023-06-10T02:46:02;102719.96;;;9.77;35.29
73518;BME280;61766;60.318;25.044;2023-06-10T02:48:28;102721.36;;;9.86;35.05
73518;BME280;61766;60.318;25.044;2023-06-10T02:50:52;102719.90;;;9.86;35.42
73518;BME280;61766;60.318;25.044;2023-06-10T02:53:17;102720.28;;;10.02;35.29
73518;BME280;61766;60.318;25.044;2023-06-10T02:55:42;102720.79;;;9.88;35.38
73518;BME280;61766;60.318;25.044;2023-06-10T02:58:08;102724.04;;;9.96;35.43
73518;BME280;61766;60.318;25.044;2023-06-10T03:00:33;102728.25;;;10.37;35.18
73518;BME280;61766;60.318;25.044;2023-06-10T03:02:58;102728.32;;;10.51;35.00
73518;BME280;61766;60.318;25.044;2023-06-10T03:05:23;102732.71;;;10.06;35.12
73518;BME280;61766;60.318;25.044;2023-06-10T03:07:49;102734.70;;;10.53;35.12
73518;BME280;61766;60.318;25.044;2023-06-10T03:10:15;102739.66;;;10.43;35.24
73518;BME280;61766;60.318;25.044;2023-06-10T03:12:39;102741.57;;;10.59;34.99
73518;BME280;61766;60.318;25.044;2023-06-10T03:15:06;102743.58;;;10.38;35.49
73518;BME280;61766;60.318;25.044;2023-06-10T03:17:29;102748.09;;;10.54;35.52
73518;BME280;61766;60.318;25.044;2023-06-10T03:19:54;102747.80;;;10.28;35.49
73518;BME280;61766;60.318;25.044;2023-06-10T03:22:21;102751.79;;;10.25;35.44
73518;BME280;61766;60.318;25.044;2023-06-10T03:24:45;102752.79;;;10.59;35.49
73518;BME280;61766;60.318;25.044;2023-06-10T03:27:10;102752.27;;;10.55;34.51
73518;BME280;61766;60.318;25.044;2023-06-10T03:29:36;102753.23;;;10.51;34.13
73518;BME280;61766;60.318;25.044;2023-06-10T03:32:01;102749.94;;;10.72;34.54
73518;BME280;61766;60.318;25.044;2023-06-10T03:34:26;102748.21;;;10.91;33.46
73518;BME280;61766;60.318;25.044;2023-06-10T03:36:51;102750.23;;;11.28;33.94
73518;BME280;61766;60.318;25.044;2023-06-10T03:39:16;102750.27;;;11.39;33.54
73518;BME280;61766;60.318;25.044;2023-06-10T03:41:41;102754.09;;;11.23;32.32
73518;BME280;61766;60.318;25.044;2023-06-10T03:44:06;102752.73;;;11.61;32.39
73518;BME280;61766;60.318;25.044;2023-06-10T03:46:31;102754.51;;;11.49;32.05
73518;BME280;61766;60.318;25.044;2023-06-10T03:48:56;102753.66;;;12.09;31.83
73518;BME280;61766;60.318;25.044;2023-06-10T03:51:21;102752.35;;;11.93;32.45
73518;BME280;61766;60.318;25.044;2023-06-10T03:53:47;102752.30;;;12.11;32.57
73518;BME280;61766;60.318;25.044;2023-06-10T03:56:12;102754.39;;;12.32;31.93
73518;BME280;61766;60.318;25.044;2023-06-10T03:58:37;102756.43;;;12.11;32.30
73518;BME280;61766;60.318;25.044;2023-06-10T04:01:02;102755.89;;;12.60;31.97
73518;BME280;61766;60.318;25.044;2023-06-10T04:03:27;102754.75;;;12.45;31.18
73518;BME280;61766;60.318;25.044;2023-06-10T04:05:52;102756.65;;;12.86;31.14
73518;BME280;61766;60.318;25.044;2023-06-10T04:08:18;102757.12;;;12.87;31.13
73518;BME280;61766;60.318;25.044;2023-06-10T04:10:42;102757.38;;;13.12;31.50
73518;BME280;61766;60.318;25.044;2023-06-10T04:13:07;102758.71;;;13.16;31.38
73518;BME280;61766;60.318;25.044;2023-06-10T04:15:32;102758.58;;;13.14;31.19
73518;BME280;61766;60.318;25.044;2023-06-10T04:17:57;102757.11;;;13.41;31.51
73518;BME280;61766;60.318;25.044;2023-06-10T04:20:22;102762.47;;;13.21;31.54
73518;BME280;61766;60.318;25.044;2023-06-10T04:22:47;102763.85;;;13.61;30.87
73518;BME280;61766;60.318;25.044;2023-06-10T04:25:12;102766.19;;;13.68;31.73
73518;BME280;61766;60.318;25.044;2023-06-10T04:27:38;102765.59;;;14.17;29.97
73518;BME280;61766;60.318;25.044;2023-06-10T04:30:04;102768.09;;;13.86;29.64
73518;BME280;61766;60.318;25.044;2023-06-10T04:32:28;102769.08;;;13.92;29.61
73518;BME280;61766;60.318;25.044;2023-06-10T04:34:53;102769.63;;;14.33;30.04
73518;BME280;61766;60.318;25.044;2023-06-10T04:37:18;102771.64;;;14.83;30.11
73518;BME280;61766;60.318;25.044;2023-06-10T04:39:43;102774.44;;;15.03;28.24
73518;BME280;61766;60.318;25.044;2023-06-10T04:42:08;102774.42;;;15.06;27.26
73518;BME280;61766;60.318;25.044;2023-06-10T04:44:33;102772.60;;;15.18;27.64
73518;BME280;61766;60.318;25.044;2023-06-10T04:46:58;102771.82;;;15.24;28.26
73518;BME280;61766;60.318;25.044;2023-06-10T04:49:23;102775.46;;;15.16;27.57
73518;BME280;61766;60.318;25.044;2023-06-10T04:51:48;102778.19;;;14.96;26.84
73518;BME280;61766;60.318;25.044;2023-06-10T04:54:14;102778.39;;;15.66;26.90
73518;BME280;61766;60.318;25.044;2023-06-10T04:56:40;102780.42;;;15.97;26.41
73518;BME280;61766;60.318;25.044;2023-06-10T04:59:05;102784.38;;;16.18;27.01
73518;BME280;61766;60.318;25.044;2023-06-10T05:01:31;102786.12;;;15.78;25.56
73518;BME280;61766;60.318;25.044;2023-06-10T05:03:57;102787.62;;;16.14;26.74
73518;BME280;61766;60.318;25.044;2023-06-10T05:06:23;102787.35;;;16.60;24.84
73518;BME280;61766;60.318;25.044;2023-06-10T05:08:49;102788.83;;;15.94;24.31
73518;BME280;61766;60.318;25.044;2023-06-10T05:11:15;102790.66;;;15.99;24.27
73518;BME280;61766;60.318;25.044;2023-06-10T05:13:42;102791.48;;;16.26;24.41
73518;BME280;61766;60.318;25.044;2023-06-10T05:16:06;102792.72;;;17.12;24.25
73518;BME280;61766;60.318;25.044;2023-06-10T05:18:32;102795.86;;;16.65;24.37
73518;BME280;61766;60.318;25.044;2023-06-10T05:20:58;102794.53;;;16.53;23.49
73518;BME280;61766;60.318;25.044;2023-06-10T05:23:24;102796.77;;;16.77;24.72
73518;BME280;61766;60.318;25.044;2023-06-10T05:25:50;102798.61;;;17.02;24.16
73518;BME280;61766;60.318;25.044;2023-06-10T05:28:15;102792.63;;;17.13;23.58
73518;BME280;61766;60.318;25.044;2023-06-10T05:30:41;102789.05;;;17.55;23.46
73518;BME280;61766;60.318;25.044;2023-06-10T05:33:07;102791.38;;;17.80;22.75
73518;BME280;61766;60.318;25.044;2023-06-10T05:35:33;102789.11;;;17.62;22.33
73518;BME280;61766;60.318;25.044;2023-06-10T05:37:59;102789.01;;;18.03;22.84
73518;BME280;61766;60.318;25.044;2023-06-10T05:40:24;102792.93;;;17.86;22.75
73518;BME280;61766;60.318;25.044;2023-06-10T05:42:50;102796.12;;;18.16;22.39
73518;BME280;61766;60.318;25.044;2023-06-10T05:45:16;102793.25;;;18.57;21.54
73518;BME280;61766;60.318;25.044;2023-06-10T05:47:42;102792.76;;;17.81;21.41
73518;BME280;61766;60.318;25.044;2023-06-10T05:50:08;102795.31;;;18.38;21.45
73518;BME280;61766;60.318;25.044;2023-06-10T05:52:33;102798.37;;;18.38;21.07
73518;BME280;61766;60.318;25.044;2023-06-10T05:54:59;102799.82;;;18.44;21.17
73518;BME280;61766;60.318;25.044;2023-06-10T05:57:25;102800.96;;;18.50;20.16
73518;BME280;61766;60.318;25.044;2023-06-10T05:59:51;102801.26;;;18.52;20.72
73518;BME280;61766;60.318;25.044;2023-06-10T06:02:16;102797.68;;;18.72;20.62
73518;BME280;61766;60.318;25.044;2023-06-10T06:04:42;102797.27;;;19.07;20.57
73518;BME280;61766;60.318;25.044;2023-06-10T06:07:08;102798.89;;;19.17;20.46
73518;BME280;61766;60.318;25.044;2023-06-10T06:09:34;102803.80;;;18.94;18.96
73518;BME280;61766;60.318;25.044;2023-06-10T06:12:00;102800.40;;;19.57;19.52
73518;BME280;61766;60.318;25.044;2023-06-10T06:14:25;102804.57;;;18.95;19.35
73518;BME280;61766;60.318;25.044;2023-06-10T06:16:51;102808.40;;;18.97;19.30
73518;BME280;61766;60.318;25.044;2023-06-10T06:19:17;102805.88;;;19.03;19.14
73518;BME280;61766;60.318;25.044;2023-06-10T06:21:43;102807.45;;;19.18;19.74
73518;BME280;61766;60.318;25.044;2023-06-10T06:24:08;102807.91;;;18.70;18.58
73518;BME280;61766;60.318;25.044;2023-06-10T06:26:34;102808.16;;;19.11;18.41
73518;BME280;61766;60.318;25.044;2023-06-10T06:29:00;102809.32;;;19.15;18.42
73518;BME280;61766;60.318;25.044;2023-06-10T06:31:26;102809.58;;;19.19;19.33
73518;BME280;61766;60.318;25.044;2023-06-10T06:33:52;102812.89;;;19.75;18.91
73518;BME280;61766;60.318;25.044;2023-06-10T06:36:17;102811.71;;;19.52;17.30
73518;BME280;61766;60.318;25.044;2023-06-10T06:38:43;102812.02;;;19.28;17.58
73518;BME280;61766;60.318;25.044;2023-06-10T06:41:09;102815.44;;;19.05;18.17
73518;BME280;61766;60.318;25.044;2023-06-10T06:43:35;102816.43;;;19.72;17.77
73518;BME280;61766;60.318;25.044;2023-06-10T06:46:00;102819.06;;;19.74;18.51
73518;BME280;61766;60.318;25.044;2023-06-10T06:48:26;102814.56;;;20.25;17.51
73518;BME280;61766;60.318;25.044;2023-06-10T06:50:52;102819.09;;;20.64;17.95
73518;BME280;61766;60.318;25.044;2023-06-10T06:53:18;102820.89;;;20.91;17.09
73518;BME280;61766;60.318;25.044;2023-06-10T06:55:43;102821.73;;;20.48;17.46
73518;BME280;61766;60.318;25.044;2023-06-10T06:58:09;102825.25;;;19.83;17.77
73518;BME280;61766;60.318;25.044;2023-06-10T07:00:35;102824.76;;;20.16;18.66
73518;BME280;61766;60.318;25.044;2023-06-10T07:03:01;102821.90;;;20.72;17.27
73518;BME280;61766;60.318;25.044;2023-06-10T07:05:27;102822.93;;;20.86;17.00
73518;BME280;61766;60.318;25.044;2023-06-10T07:07:52;102825.33;;;21.08;18.92
73518;BME280;61766;60.318;25.044;2023-06-10T07:10:18;102825.44;;;20.59;17.08
73518;BME280;61766;60.318;25.044;2023-06-10T07:12:44;102823.69;;;19.57;17.98
73518;BME280;61766;60.318;25.044;2023-06-10T07:15:09;102825.80;;;20.11;18.49
73518;BME280;61766;60.318;25.044;2023-06-10T07:17:35;102831.00;;;20.13;18.70
73518;BME280;61766;60.318;25.044;2023-06-10T07:20:02;102830.19;;;20.59;17.64
73518;BME280;61766;60.318;25.044;2023-06-10T07:22:27;102830.61;;;20.70;17.76
73518;BME280;61766;60.318;25.044;2023-06-10T07:24:52;102835.09;;;20.79;16.78
73518;BME280;61766;60.318;25.044;2023-06-10T07:27:18;102834.64;;;21.27;17.51
73518;BME280;61766;60.318;25.044;2023-06-10T07:29:44;102832.29;;;21.49;16.87
73518;BME280;61766;60.318;25.044;2023-06-10T07:32:09;102835.39;;;21.52;16.56
73518;BME280;61766;60.318;25.044;2023-06-10T07:34:35;102834.86;;;22.44;17.63
73518;BME280;61766;60.318;25.044;2023-06-10T07:37:01;102832.45;;;22.51;15.87
73518;BME280;61766;60.318;25.044;2023-06-10T07:39:27;102834.24;;;22.95;16.17
73518;BME280;61766;60.318;25.044;2023-06-10T07:41:52;102837.99;;;23.28;15.70
73518;BME280;61766;60.318;25.044;2023-06-10T07:44:18;102835.40;;;23.67;15.11
73518;BME280;61766;60.318;25.044;2023-06-10T07:46:44;102836.24;;;23.58;14.96
73518;BME280;61766;60.318;25.044;2023-06-10T07:49:10;102837.89;;;23.73;15.22
73518;BME280;61766;60.318;25.044;2023-06-10T07:51:35;102837.52;;;23.91;14.50
73518;BME280;61766;60.318;25.044;2023-06-10T07:54:01;102834.82;;;23.64;14.53
73518;BME280;61766;60.318;25.044;2023-06-10T07:56:27;102835.26;;;23.44;14.84
73518;BME280;61766;60.318;25.044;2023-06-10T07:58:52;102835.55;;;23.27;14.00
73518;BME280;61766;60.318;25.044;2023-06-10T08:01:18;102839.06;;;23.69;14.43
73518;BME280;61766;60.318;25.044;2023-06-10T08:03:44;102846.01;;;23.79;14.72
73518;BME280;61766;60.318;25.044;2023-06-10T08:06:09;102841.81;;;24.12;13.28
73518;BME280;61766;60.318;25.044;2023-06-10T08:08:35;102843.49;;;24.13;14.68
73518;BME280;61766;60.318;25.044;2023-06-10T08:11:01;102845.80;;;24.26;14.18
73518;BME280;61766;60.318;25.044;2023-06-10T08:13:26;102842.16;;;24.36;13.90
73518;BME280;61766;60.318;25.044;2023-06-10T08:15:52;102843.24;;;24.23;14.56
73518;BME280;61766;60.318;25.044;2023-06-10T08:18:18;102845.34;;;24.40;13.58
73518;BME280;61766;60.318;25.044;2023-06-10T08:20:43;102844.40;;;22.68;14.23
73518;BME280;61766;60.318;25.044;2023-06-10T08:23:09;102841.32;;;23.33;13.33
73518;BME280;61766;60.318;25.044;2023-06-10T08:25:35;102841.99;;;23.10;13.97
73518;BME280;61766;60.318;25.044;2023-06-10T08:28:00;102839.02;;;23.29;13.20
73518;BME280;61766;60.318;25.044;2023-06-10T08:30:26;102841.91;;;21.58;14.36
73518;BME280;61766;60.318;25.044;2023-06-10T08:32:52;102838.89;;;22.64;15.08
73518;BME280;61766;60.318;25.044;2023-06-10T08:35:18;102837.41;;;23.03;14.39
73518;BME280;61766;60.318;25.044;2023-06-10T08:37:43;102834.50;;;23.19;14.63
73518;BME280;61766;60.318;25.044;2023-06-10T08:40:10;102835.23;;;23.71;14.18
73518;BME280;61766;60.318;25.044;2023-06-10T08:42:39;102839.19;;;23.77;13.11
73518;BME280;61766;60.318;25.044;2023-06-10T08:45:01;102838.47;;;23.78;13.43
73518;BME280;61766;60.318;25.044;2023-06-10T08:47:28;102838.70;;;23.82;14.47
73518;BME280;61766;60.318;25.044;2023-06-10T08:49:53;102834.54;;;24.20;14.18
73518;BME280;61766;60.318;25.044;2023-06-10T08:52:19;102834.51;;;24.91;15.19
73518;BME280;61766;60.318;25.044;2023-06-10T08:54:47;102832.25;;;25.08;14.30
73518;BME280;61766;60.318;25.044;2023-06-10T08:57:09;102839.20;;;23.92;13.59
73518;BME280;61766;60.318;25.044;2023-06-10T08:59:36;102833.86;;;24.34;13.79
73518;BME280;61766;60.318;25.044;2023-06-10T09:02:01;102836.40;;;24.25;14.05
73518;BME280;61766;60.318;25.044;2023-06-10T09:04:27;102836.80;;;24.20;13.20
73518;BME280;61766;60.318;25.044;2023-06-10T09:06:52;102836.28;;;23.13;13.86
73518;BME280;61766;60.318;25.044;2023-06-10T09:09:18;102835.73;;;23.30;14.89
73518;BME280;61766;60.318;25.044;2023-06-10T09:11:43;102837.44;;;24.01;15.53
73518;BME280;61766;60.318;25.044;2023-06-10T09:14:09;102835.56;;;24.43;14.88
73518;BME280;61766;60.318;25.044;2023-06-10T09:16:34;102839.48;;;23.68;14.62
73518;BME280;61766;60.318;25.044;2023-06-10T09:19:00;102842.54;;;23.91;15.53
73518;BME280;61766;60.318;25.044;2023-06-10T09:21:26;102844.06;;;24.44;15.30
73518;BME280;61766;60.318;25.044;2023-06-10T09:23:52;102845.80;;;24.48;14.56
73518;BME280;61766;60.318;25.044;2023-06-10T09:26:17;102850.24;;;23.90;15.31
73518;BME280;61766;60.318;25.044;2023-06-10T09:28:44;102847.27;;;23.47;15.08
73518;BME280;61766;60.318;25.044;2023-06-10T09:31:09;102854.68;;;22.60;16.11
73518;BME280;61766;60.318;25.044;2023-06-10T09:33:37;102854.16;;;22.07;16.01
73518;BME280;61766;60.318;25.044;2023-06-10T09:36:02;102854.44;;;22.20;15.95
73518;BME280;61766;60.318;25.044;2023-06-10T09:38:29;102855.77;;;20.77;17.11
73518;BME280;61766;60.318;25.044;2023-06-10T09:40:52;102851.78;;;22.52;17.85
73518;BME280;61766;60.318;25.044;2023-06-10T09:43:17;102853.30;;;21.98;16.79
73518;BME280;61766;60.318;25.044;2023-06-10T09:45:43;102851.66;;;21.88;16.39
73518;BME280;61766;60.318;25.044;2023-06-10T09:48:08;102850.61;;;22.21;16.22
73518;BME280;61766;60.318;25.044;2023-06-10T09:50:34;102855.88;;;21.50;16.99
73518;BME280;61766;60.318;25.044;2023-06-10T09:52:59;102842.67;;;22.64;15.58
73518;BME280;61766;60.318;25.044;2023-06-10T09:55:25;102847.51;;;22.32;15.96
73518;BME280;61766;60.318;25.044;2023-06-10T09:57:53;102845.08;;;22.21;16.66
73518;BME280;61766;60.318;25.044;2023-06-10T10:00:17;102848.80;;;22.41;15.75
73518;BME280;61766;60.318;25.044;2023-06-10T10:02:47;102855.78;;;20.23;18.46
73518;BME280;61766;60.318;25.044;2023-06-10T10:05:08;102856.36;;;18.89;19.22
73518;BME280;61766;60.318;25.044;2023-06-10T10:07:34;102851.21;;;19.22;19.03
73518;BME280;61766;60.318;25.044;2023-06-10T10:09:59;102854.37;;;19.95;19.32
73518;BME280;61766;60.318;25.044;2023-06-10T10:12:26;102855.52;;;18.43;19.43
73518;BME280;61766;60.318;25.044;2023-06-10T10:14:52;102856.33;;;18.75;19.09
73518;BME280;61766;60.318;25.044;2023-06-10T10:17:18;102857.20;;;18.32;19.79
73518;BME280;61766;60.318;25.044;2023-06-10T10:19:46;102855.11;;;18.67;19.23
73518;BME280;61766;60.318;25.044;2023-06-10T10:22:12;102851.37;;;19.58;18.68
73518;BME280;61766;60.318;25.044;2023-06-10T10:24:36;102846.87;;;19.78;18.44
73518;BME280;61766;60.318;25.044;2023-06-10T10:27:01;102852.13;;;19.93;18.46
73518;BME280;61766;60.318;25.044;2023-06-10T10:29:30;102846.78;;;20.03;18.31
73518;BME280;61766;60.318;25.044;2023-06-10T10:31:52;102852.19;;;19.46;19.35
73518;BME280;61766;60.318;25.044;2023-06-10T10:34:21;102842.87;;;18.61;18.65
73518;BME280;61766;60.318;25.044;2023-06-10T10:36:43;102845.94;;;19.78;18.76
73518;BME280;61766;60.318;25.044;2023-06-10T10:39:09;102848.84;;;19.54;18.71
73518;BME280;61766;60.318;25.044;2023-06-10T10:41:36;102844.76;;;20.50;17.97
73518;BME280;61766;60.318;25.044;2023-06-10T10:44:01;102856.71;;;19.33;18.51
73518;BME280;61766;60.318;25.044;2023-06-10T10:46:26;102848.18;;;20.22;18.31
73518;BME280;61766;60.318;25.044;2023-06-10T10:48:53;102848.62;;;19.44;19.07
73518;BME280;61766;60.318;25.044;2023-06-10T10:51:17;102851.45;;;19.73;18.08
73518;BME280;61766;60.318;25.044;2023-06-10T10:53:43;102838.63;;;19.25;18.91
73518;BME280;61766;60.318;25.044;2023-06-10T10:56:15;102839.44;;;19.51;18.84
73518;BME280;61766;60.318;25.044;2023-06-10T10:58:35;102836.81;;;18.84;19.09
73518;BME280;61766;60.318;25.044;2023-06-10T11:01:11;102835.19;;;20.16;18.02
73518;BME280;61766;60.318;25.044;2023-06-10T11:03:29;102839.90;;;20.11;18.42
73518;BME280;61766;60.318;25.044;2023-06-10T11:05:52;102838.42;;;19.30;18.31
73518;BME280;61766;60.318;25.044;2023-06-10T11:10:51;102833.45;;;18.34;19.26
73518;BME280;61766;60.318;25.044;2023-06-10T11:13:12;102835.46;;;19.57;18.90
73518;BME280;61766;60.318;25.044;2023-06-10T11:15:39;102829.43;;;19.93;18.28
73518;BME280;61766;60.318;25.044;2023-06-10T11:18:10;102829.75;;;19.90;18.37
73518;BME280;61766;60.318;25.044;2023-06-10T11:22:58;102830.60;;;17.43;19.50
73518;BME280;61766;60.318;25.044;2023-06-10T11:27:48;102832.00;;;19.24;18.88
73518;BME280;61766;60.318;25.044;2023-06-10T11:30:19;102828.54;;;18.74;19.11
73518;BME280;61766;60.318;25.044;2023-06-10T11:32:35;102826.54;;;18.86;18.71
73518;BME280;61766;60.318;25.044;2023-06-10T11:35:03;102827.07;;;19.04;18.30
73518;BME280;61766;60.318;25.044;2023-06-10T11:37:28;102823.19;;;19.71;18.54
73518;BME280;61766;60.318;25.044;2023-06-10T11:39:53;102827.99;;;20.29;17.92
73518;BME280;61766;60.318;25.044;2023-06-10T11:42:18;102820.76;;;18.69;18.98
73518;BME280;61766;60.318;25.044;2023-06-10T11:44:48;102817.89;;;19.66;18.35
73518;BME280;61766;60.318;25.044;2023-06-10T11:47:10;102824.03;;;18.29;18.78
73518;BME280;61766;60.318;25.044;2023-06-10T11:49:35;102823.73;;;17.04;20.01
73518;BME280;61766;60.318;25.044;2023-06-10T11:52:04;102820.88;;;16.79;20.39
73518;BME280;61766;60.318;25.044;2023-06-10T11:54:27;102814.67;;;17.84;19.90
73518;BME280;61766;60.318;25.044;2023-06-10T11:56:57;102812.32;;;18.55;19.43
73518;BME280;61766;60.318;25.044;2023-06-10T11:59:19;102819.16;;;18.35;19.34
73518;BME280;61766;60.318;25.044;2023-06-10T12:01:45;102812.48;;;18.01;19.31
73518;BME280;61766;60.318;25.044;2023-06-10T12:04:11;102812.43;;;18.07;19.11
73518;BME280;61766;60.318;25.044;2023-06-10T12:06:40;102818.90;;;18.31;19.66
73518;BME280;61766;60.318;25.044;2023-06-10T12:09:01;102819.21;;;19.00;19.49
73518;BME280;61766;60.318;25.044;2023-06-10T12:11:27;102823.52;;;18.99;18.17
73518;BME280;61766;60.318;25.044;2023-06-10T12:13:53;102816.51;;;18.91;18.87
73518;BME280;61766;60.318;25.044;2023-06-10T12:16:19;102830.85;;;18.40;18.52
73518;BME280;61766;60.318;25.044;2023-06-10T12:18:46;102816.34;;;18.31;18.80
73518;BME280;61766;60.318;25.044;2023-06-10T12:21:18;102821.10;;;17.83;18.92
73518;BME280;61766;60.318;25.044;2023-06-10T12:23:36;102812.97;;;19.39;18.37
73518;BME280;61766;60.318;25.044;2023-06-10T12:26:02;102821.23;;;17.73;19.51
73518;BME280;61766;60.318;25.044;2023-06-10T12:28:27;102813.23;;;18.39;19.45
73518;BME280;61766;60.318;25.044;2023-06-10T12:33:20;102819.81;;;18.91;19.12
73518;BME280;61766;60.318;25.044;2023-06-10T12:35:48;102819.15;;;19.10;18.55
73518;BME280;61766;60.318;25.044;2023-06-10T12:38:11;102820.96;;;18.42;19.44
73518;BME280;61766;60.318;25.044;2023-06-10T12:40:37;102829.60;;;18.45;19.46
73518;BME280;61766;60.318;25.044;2023-06-10T12:43:02;102834.92;;;16.63;20.38